sensor_id;sensor_type;location;lat;lon;timestamp;pressure;altitude;pressure_sealevel;temperature;humidity
34931;BME280;21134;49.646;8.560;2023-02-02T00:02:00;101066.03;;;7.26;82.62
34931;BME280;21134;49.646;8.560;2023-02-02T00:04:33;101070.19;;;7.22;83.00
34931;BME280;21134;49.646;8.560;2023-02-02T00:07:01;101059.16;;;7.22;82.75
34931;BME280;21134;49.646;8.560;2023-02-02T00:09:30;101058.38;;;7.26;83.50
34931;BME280;21134;49.646;8.560;2023-02-02T00:11:59;101055.94;;;7.31;83.94
34931;BME280;21134;49.646;8.560;2023-02-02T00:14:26;101064.13;;;7.17;83.29
34931;BME280;21134;49.646;8.560;2023-02-02T00:16:53;101059.41;;;7.34;82.73
34931;BME280;21134;49.646;8.560;2023-02-02T00:19:22;101066.09;;;7.29;83.28
34931;BME280;21134;49.646;8.560;2023-02-02T00:21:51;101067.72;;;7.27;83.49
34931;BME280;21134;49.646;8.560;2023-02-02T00:24:18;101074.63;;;7.31;83.35
34931;BME280;21134;49.646;8.560;2023-02-02T00:26:47;101078.66;;;7.21;84.25
34931;BME280;21134;49.646;8.560;2023-02-02T00:29:17;101066.47;;;7.08;84.55
34931;BME280;21134;49.646;8.560;2023-02-02T00:31:44;101081.88;;;7.14;84.68
34931;BME280;21134;49.646;8.560;2023-02-02T00:34:11;101070.56;;;7.02;85.31
34931;BME280;21134;49.646;8.560;2023-02-02T00:36:38;101063.97;;;7.11;85.86
34931;BME280;21134;49.646;8.560;2023-02-02T00:39:05;101063.91;;;7.07;85.13
34931;BME280;21134;49.646;8.560;2023-02-02T00:41:32;101074.97;;;7.09;86.35
34931;BME280;21134;49.646;8.560;2023-02-02T00:43:59;101063.25;;;7.17;86.78
34931;BME280;21134;49.646;8.560;2023-02-02T00:46:44;101068.63;;;7.29;85.76
34931;BME280;21134;49.646;8.560;2023-02-02T00:49:11;101064.25;;;7.22;85.54
34931;BME280;21134;49.646;8.560;2023-02-02T00:51:37;101069.06;;;7.11;86.78
34931;BME280;21134;49.646;8.560;2023-02-02T00:54:04;101070.69;;;7.06;86.90
34931;BME280;21134;49.646;8.560;2023-02-02T00:56:30;101068.19;;;7.09;88.29
34931;BME280;21134;49.646;8.560;2023-02-02T00:58:57;101067.22;;;7.04;89.21
34931;BME280;21134;49.646;8.560;2023-02-02T01:01:24;101069.13;;;7.13;88.09
34931;BME280;21134;49.646;8.560;2023-02-02T01:03:52;101048.59;;;7.05;88.15
34931;BME280;21134;49.646;8.560;2023-02-02T01:06:19;101055.22;;;6.98;89.07
34931;BME280;21134;49.646;8.560;2023-02-02T01:08:45;101063.97;;;7.10;88.19
34931;BME280;21134;49.646;8.560;2023-02-02T01:11:12;101069.13;;;7.13;87.23
34931;BME280;21134;49.646;8.560;2023-02-02T01:13:38;101073.97;;;7.02;88.70
34931;BME280;21134;49.646;8.560;2023-02-02T01:16:05;101073.91;;;6.99;91.36
34931;BME280;21134;49.646;8.560;2023-02-02T01:18:32;101075.47;;;6.92;92.71
34931;BME280;21134;49.646;8.560;2023-02-02T01:21:02;101078.78;;;6.90;92.80
34931;BME280;21134;49.646;8.560;2023-02-02T01:23:29;101080.31;;;6.83;93.24
34931;BME280;21134;49.646;8.560;2023-02-02T01:25:57;101086.94;;;6.77;93.50
34931;BME280;21134;49.646;8.560;2023-02-02T01:28:24;101089.41;;;6.73;94.41
34931;BME280;21134;49.646;8.560;2023-02-02T01:30:51;101076.72;;;6.75;94.93
34931;BME280;21134;49.646;8.560;2023-02-02T01:33:18;101077.25;;;6.62;95.83
34931;BME280;21134;49.646;8.560;2023-02-02T01:35:45;101065.31;;;6.58;97.05
34931;BME280;21134;49.646;8.560;2023-02-02T01:38:14;101075.63;;;6.64;96.69
34931;BME280;21134;49.646;8.560;2023-02-02T01:40:44;101072.00;;;6.54;97.01
34931;BME280;21134;49.646;8.560;2023-02-02T01:43:21;101075.56;;;6.62;96.21
34931;BME280;21134;49.646;8.560;2023-02-02T01:45:47;101069.78;;;6.68;95.46
34931;BME280;21134;49.646;8.560;2023-02-02T01:48:14;101067.84;;;6.58;97.07
34931;BME280;21134;49.646;8.560;2023-02-02T01:50:42;101075.69;;;6.67;95.85
34931;BME280;21134;49.646;8.560;2023-02-02T01:53:10;101072.31;;;6.68;94.67
34931;BME280;21134;49.646;8.560;2023-02-02T01:55:39;101084.09;;;6.64;95.91
34931;BME280;21134;49.646;8.560;2023-02-02T01:58:10;101082.09;;;6.52;96.08
34931;BME280;21134;49.646;8.560;2023-02-02T02:00:38;101085.63;;;6.58;95.59
34931;BME280;21134;49.646;8.560;2023-02-02T02:03:08;101082.34;;;6.62;95.09
34931;BME280;21134;49.646;8.560;2023-02-02T02:05:39;101080.81;;;6.68;94.80
34931;BME280;21134;49.646;8.560;2023-02-02T02:08:12;101077.41;;;6.68;94.38
34931;BME280;21134;49.646;8.560;2023-02-02T02:10:40;101077.66;;;6.79;93.53
34931;BME280;21134;49.646;8.560;2023-02-02T02:13:07;101069.09;;;6.75;93.27
34931;BME280;21134;49.646;8.560;2023-02-02T02:15:40;101066.63;;;6.78;92.66
34931;BME280;21134;49.646;8.560;2023-02-02T02:18:39;101075.09;;;6.79;93.30
34931;BME280;21134;49.646;8.560;2023-02-02T02:21:25;101072.72;;;6.85;93.11
34931;BME280;21134;49.646;8.560;2023-02-02T02:27:43;101069.06;;;6.73;92.99
34931;BME280;21134;49.646;8.560;2023-02-02T02:30:33;101069.81;;;6.69;94.14
34931;BME280;21134;49.646;8.560;2023-02-02T02:33:05;101069.63;;;6.98;92.03
34931;BME280;21134;49.646;8.560;2023-02-02T02:35:36;101073.72;;;6.91;92.24
34931;BME280;21134;49.646;8.560;2023-02-02T02:38:12;101066.88;;;6.89;92.34
34931;BME280;21134;49.646;8.560;2023-02-02T02:40:46;101075.25;;;6.83;93.19
34931;BME280;21134;49.646;8.560;2023-02-02T02:43:18;101080.31;;;6.83;93.38
34931;BME280;21134;49.646;8.560;2023-02-02T02:45:46;101079.00;;;6.99;90.99
34931;BME280;21134;49.646;8.560;2023-02-02T02:48:14;101081.63;;;7.02;92.35
34931;BME280;21134;49.646;8.560;2023-02-02T02:50:41;101081.69;;;7.05;92.16
34931;BME280;21134;49.646;8.560;2023-02-02T02:53:10;101088.03;;;6.86;93.67
34931;BME280;21134;49.646;8.560;2023-02-02T02:55:45;101087.03;;;6.80;95.85
34931;BME280;21134;49.646;8.560;2023-02-02T02:58:16;101088.03;;;6.86;96.46
34931;BME280;21134;49.646;8.560;2023-02-02T03:00:49;101080.91;;;6.73;96.78
34931;BME280;21134;49.646;8.560;2023-02-02T03:03:28;101080.19;;;6.79;97.79
34931;BME280;21134;49.646;8.560;2023-02-02T03:06:03;101075.63;;;6.65;98.22
34931;BME280;21134;49.646;8.560;2023-02-02T03:08:37;101082.50;;;6.68;97.94
34931;BME280;21134;49.646;8.560;2023-02-02T03:11:06;101080.88;;;6.71;98.80
34931;BME280;21134;49.646;8.560;2023-02-02T03:13:35;101085.78;;;6.64;99.22
34931;BME280;21134;49.646;8.560;2023-02-02T03:16:01;101079.72;;;6.59;99.26
34931;BME280;21134;49.646;8.560;2023-02-02T03:18:30;101082.34;;;6.62;99.74
34931;BME280;21134;49.646;8.560;2023-02-02T03:20:58;101086.75;;;6.69;98.61
34931;BME280;21134;49.646;8.560;2023-02-02T03:23:25;101096.84;;;6.66;99.40
34931;BME280;21134;49.646;8.560;2023-02-02T03:25:52;101089.84;;;6.57;100.00
34931;BME280;21134;49.646;8.560;2023-02-02T03:28:20;101089.06;;;6.60;99.78
34931;BME280;21134;49.646;8.560;2023-02-02T03:30:48;101084.06;;;6.63;100.00
34931;BME280;21134;49.646;8.560;2023-02-02T03:33:16;101079.03;;;6.66;99.00
34931;BME280;21134;49.646;8.560;2023-02-02T03:35:45;101074.56;;;6.56;99.32
34931;BME280;21134;49.646;8.560;2023-02-02T03:38:11;101070.66;;;6.70;98.35
34931;BME280;21134;49.646;8.560;2023-02-02T03:40:38;101073.88;;;6.63;98.32
34931;BME280;21134;49.646;8.560;2023-02-02T03:43:05;101076.56;;;6.67;97.48
34931;BME280;21134;49.646;8.560;2023-02-02T03:45:32;101079.25;;;6.73;97.79
34931;BME280;21134;49.646;8.560;2023-02-02T03:47:59;101086.66;;;6.66;96.86
34931;BME280;21134;49.646;8.560;2023-02-02T03:50:26;101093.59;;;6.71;97.85
34931;BME280;21134;49.646;8.560;2023-02-02T03:52:54;101091.19;;;6.78;97.71
34931;BME280;21134;49.646;8.560;2023-02-02T03:55:20;101087.97;;;6.85;97.88
34931;BME280;21134;49.646;8.560;2023-02-02T03:57:47;101089.41;;;6.73;97.94
34931;BME280;21134;49.646;8.560;2023-02-02T04:00:14;101085.44;;;6.85;98.66
34931;BME280;21134;49.646;8.560;2023-02-02T04:02:41;101090.34;;;6.77;99.05
34931;BME280;21134;49.646;8.560;2023-02-02T04:05:07;101088.03;;;6.53;100.00
34931;BME280;21134;49.646;8.560;2023-02-02T04:07:34;101096.03;;;6.67;100.00
34931;BME280;21134;49.646;8.560;2023-02-02T04:10:02;101099.13;;;6.55;100.00
34931;BME280;21134;49.646;8.560;2023-02-02T04:12:29;101095.59;;;6.50;100.00
34931;BME280;21134;49.646;8.560;2023-02-02T04:14:55;101096.66;;;6.58;100.00
34931;BME280;21134;49.646;8.560;2023-02-02T04:17:22;101085.44;;;6.50;100.00
34931;BME280;21134;49.646;8.560;2023-02-02T04:19:48;101086.19;;;6.47;100.00
34931;BME280;21134;49.646;8.560;2023-02-02T04:22:17;101093.63;;;6.38;100.00
34931;BME280;21134;49.646;8.560;2023-02-02T04:24:44;101098.72;;;6.40;100.00
34931;BME280;21134;49.646;8.560;2023-02-02T04:27:11;101095.44;;;6.44;100.00
34931;BME280;21134;49.646;8.560;2023-02-02T04:29:38;101099.34;;;6.31;100.00
34931;BME280;21134;49.646;8.560;2023-02-02T04:32:04;101097.75;;;6.35;100.00
34931;BME280;21134;49.646;8.560;2023-02-02T04:34:31;101095.00;;;6.25;100.00
34931;BME280;21134;49.646;8.560;2023-02-02T04:36:57;101103.53;;;6.29;100.00
34931;BME280;21134;49.646;8.560;2023-02-02T04:39:24;101101.19;;;6.37;100.00
34931;BME280;21134;49.646;8.560;2023-02-02T04:41:50;101110.38;;;6.32;100.00
34931;BME280;21134;49.646;8.560;2023-02-02T04:44:18;101112.09;;;6.33;100.00
34931;BME280;21134;49.646;8.560;2023-02-02T04:46:44;101110.28;;;6.28;100.00
34931;BME280;21134;49.646;8.560;2023-02-02T04:49:11;101114.09;;;6.44;100.00
34931;BME280;21134;49.646;8.560;2023-02-02T04:51:38;101108.19;;;6.45;100.00
34931;BME280;21134;49.646;8.560;2023-02-02T04:54:05;101099.00;;;6.50;100.00
34931;BME280;21134;49.646;8.560;2023-02-02T04:56:32;101109.13;;;6.49;100.00
34931;BME280;21134;49.646;8.560;2023-02-02T04:58:59;101114.06;;;6.43;100.00
34931;BME280;21134;49.646;8.560;2023-02-02T05:01:26;101116.53;;;6.40;100.00
34931;BME280;21134;49.646;8.560;2023-02-02T05:03:55;101115.78;;;6.44;100.00
34931;BME280;21134;49.646;8.560;2023-02-02T05:06:22;101110.41;;;6.66;98.65
34931;BME280;21134;49.646;8.560;2023-02-02T05:08:48;101116.25;;;6.62;98.99
34931;BME280;21134;49.646;8.560;2023-02-02T05:11:17;101122.16;;;6.61;98.48
34931;BME280;21134;49.646;8.560;2023-02-02T05:13:44;101125.41;;;6.56;98.43
34931;BME280;21134;49.646;8.560;2023-02-02T05:16:11;101121.34;;;6.62;98.46
34931;BME280;21134;49.646;8.560;2023-02-02T05:18:39;101117.34;;;6.72;97.58
34931;BME280;21134;49.646;8.560;2023-02-02T05:21:05;101134.34;;;6.74;96.33
34931;BME280;21134;49.646;8.560;2023-02-02T05:23:32;101126.06;;;6.82;94.34
34931;BME280;21134;49.646;8.560;2023-02-02T05:25:58;101143.00;;;6.81;95.57
34931;BME280;21134;49.646;8.560;2023-02-02T05:28:25;101131.41;;;6.92;94.35
34931;BME280;21134;49.646;8.560;2023-02-02T05:30:51;101131.41;;;6.92;94.03
34931;BME280;21134;49.646;8.560;2023-02-02T05:33:18;101128.81;;;6.89;94.15
34931;BME280;21134;49.646;8.560;2023-02-02T05:35:46;101137.53;;;7.01;93.30
34931;BME280;21134;49.646;8.560;2023-02-02T05:38:13;101146.06;;;7.03;92.98
34931;BME280;21134;49.646;8.560;2023-02-02T05:40:40;101143.59;;;7.06;92.53
34931;BME280;21134;49.646;8.560;2023-02-02T05:43:06;101148.78;;;7.10;92.22
34931;BME280;21134;49.646;8.560;2023-02-02T05:45:33;101152.66;;;6.94;93.70
34931;BME280;21134;49.646;8.560;2023-02-02T05:47:59;101155.41;;;7.04;92.61
34931;BME280;21134;49.646;8.560;2023-02-02T05:50:26;101152.81;;;7.01;92.89
34931;BME280;21134;49.646;8.560;2023-02-02T05:52:53;101154.41;;;6.97;92.65
34931;BME280;21134;49.646;8.560;2023-02-02T05:55:20;101156.66;;;6.85;93.44
34931;BME280;21134;49.646;8.560;2023-02-02T05:57:46;101157.72;;;6.94;93.87
34931;BME280;21134;49.646;8.560;2023-02-02T06:00:13;101164.75;;;7.05;92.94
34931;BME280;21134;49.646;8.560;2023-02-02T06:02:40;101161.28;;;7.01;93.76
34931;BME280;21134;49.646;8.560;2023-02-02T06:05:07;101169.06;;;7.07;91.91
34931;BME280;21134;49.646;8.560;2023-02-02T06:07:33;101163.66;;;6.93;92.78
34931;BME280;21134;49.646;8.560;2023-02-02T06:10:02;101161.13;;;6.95;93.01
34931;BME280;21134;49.646;8.560;2023-02-02T06:12:29;101155.97;;;6.92;93.70
34931;BME280;21134;49.646;8.560;2023-02-02T06:14:56;101153.56;;;6.96;94.18
34931;BME280;21134;49.646;8.560;2023-02-02T06:17:22;101169.63;;;6.95;94.45
34931;BME280;21134;49.646;8.560;2023-02-02T06:19:49;101169.69;;;6.98;93.54
34931;BME280;21134;49.646;8.560;2023-02-02T06:22:15;101185.94;;;7.04;93.29
34931;BME280;21134;49.646;8.560;2023-02-02T06:24:41;101175.75;;;7.02;92.99
34931;BME280;21134;49.646;8.560;2023-02-02T06:27:09;101188.25;;;6.93;95.06
34931;BME280;21134;49.646;8.560;2023-02-02T06:29:36;101189.94;;;6.94;93.83
34931;BME280;21134;49.646;8.560;2023-02-02T06:32:03;101181.47;;;6.95;94.12
34931;BME280;21134;49.646;8.560;2023-02-02T06:34:29;101177.47;;;7.03;93.50
34931;BME280;21134;49.646;8.560;2023-02-02T06:36:56;101175.75;;;7.02;93.78
34931;BME280;21134;49.646;8.560;2023-02-02T06:39:22;101189.31;;;7.03;93.26
34931;BME280;21134;49.646;8.560;2023-02-02T06:41:48;101183.22;;;6.96;93.59
34931;BME280;21134;49.646;8.560;2023-02-02T06:44:17;101187.31;;;6.89;94.00
34931;BME280;21134;49.646;8.560;2023-02-02T06:46:45;101180.63;;;6.94;94.28
34931;BME280;21134;49.646;8.560;2023-02-02T06:49:12;101181.63;;;6.99;93.44
34931;BME280;21134;49.646;8.560;2023-02-02T06:51:39;101178.88;;;6.92;94.64
34931;BME280;21134;49.646;8.560;2023-02-02T06:54:05;101190.09;;;7.00;94.70
34931;BME280;21134;49.646;8.560;2023-02-02T06:56:32;101182.47;;;7.00;93.68
34931;BME280;21134;49.646;8.560;2023-02-02T06:58:58;101181.38;;;6.90;95.02
34931;BME280;21134;49.646;8.560;2023-02-02T07:01:26;101179.75;;;6.92;93.90
34931;BME280;21134;49.646;8.560;2023-02-02T07:03:52;101178.69;;;6.84;95.05
34931;BME280;21134;49.646;8.560;2023-02-02T07:06:20;101173.00;;;6.94;94.48
34931;BME280;21134;49.646;8.560;2023-02-02T07:08:48;101166.22;;;6.95;93.90
34931;BME280;21134;49.646;8.560;2023-02-02T07:11:16;101162.81;;;6.94;93.63
34931;BME280;21134;49.646;8.560;2023-02-02T07:13:43;101169.91;;;7.06;93.16
34931;BME280;21134;49.646;8.560;2023-02-02T07:16:10;101178.31;;;7.04;94.44
34931;BME280;21134;49.646;8.560;2023-02-02T07:18:39;101177.22;;;6.92;94.51
34931;BME280;21134;49.646;8.560;2023-02-02T07:21:07;101186.09;;;7.10;92.94
34931;BME280;21134;49.646;8.560;2023-02-02T07:23:33;101193.66;;;7.07;92.27
34931;BME280;21134;49.646;8.560;2023-02-02T07:26:01;101193.63;;;7.05;93.32
34931;BME280;21134;49.646;8.560;2023-02-02T07:28:28;101195.22;;;7.02;93.26
34931;BME280;21134;49.646;8.560;2023-02-02T07:30:55;101205.63;;;7.11;92.47
34931;BME280;21134;49.646;8.560;2023-02-02T07:33:21;101205.56;;;7.08;93.92
34931;BME280;21134;49.646;8.560;2023-02-02T07:35:49;101209.84;;;7.09;93.53
34931;BME280;21134;49.646;8.560;2023-02-02T07:38:16;101202.97;;;7.06;93.03
34931;BME280;21134;49.646;8.560;2023-02-02T07:40:43;101198.91;;;7.13;93.25
34931;BME280;21134;49.646;8.560;2023-02-02T07:43:10;101204.91;;;7.15;93.01
34931;BME280;21134;49.646;8.560;2023-02-02T07:45:36;101214.19;;;7.14;91.82
34931;BME280;21134;49.646;8.560;2023-02-02T07:48:04;101210.06;;;7.18;92.85
34931;BME280;21134;49.646;8.560;2023-02-02T07:50:30;101203.22;;;7.17;92.85
34931;BME280;21134;49.646;8.560;2023-02-02T07:52:58;101211.25;;;7.32;91.57
34931;BME280;21134;49.646;8.560;2023-02-02T07:55:25;101217.81;;;7.22;92.09
34931;BME280;21134;49.646;8.560;2023-02-02T07:57:52;101215.16;;;7.18;92.81
34931;BME280;21134;49.646;8.560;2023-02-02T08:00:20;101222.97;;;7.26;91.97
34931;BME280;21134;49.646;8.560;2023-02-02T08:02:47;101230.28;;;7.13;92.93
34931;BME280;21134;49.646;8.560;2023-02-02T08:05:14;101233.22;;;7.29;91.54
34931;BME280;21134;49.646;8.560;2023-02-02T08:07:40;101235.94;;;7.36;91.17
34931;BME280;21134;49.646;8.560;2023-02-02T08:10:09;101241.97;;;7.40;91.36
34931;BME280;21134;49.646;8.560;2023-02-02T08:12:36;101236.06;;;7.41;91.18
34931;BME280;21134;49.646;8.560;2023-02-02T08:15:03;101242.78;;;7.37;90.99
34931;BME280;21134;49.646;8.560;2023-02-02T08:17:29;101243.56;;;7.36;90.32
34931;BME280;21134;49.646;8.560;2023-02-02T08:19:56;101238.50;;;7.36;91.74
34931;BME280;21134;49.646;8.560;2023-02-02T08:22:22;101240.94;;;7.32;90.82
34931;BME280;21134;49.646;8.560;2023-02-02T08:24:49;101236.00;;;7.38;90.56
34931;BME280;21134;49.646;8.560;2023-02-02T08:27:17;101236.09;;;7.42;90.20
34931;BME280;21134;49.646;8.560;2023-02-02T08:29:43;101246.97;;;7.37;91.36
34931;BME280;21134;49.646;8.560;2023-02-02T08:32:10;101259.94;;;7.46;90.02
34931;BME280;21134;49.646;8.560;2023-02-02T08:34:37;101260.88;;;7.50;90.33
34931;BME280;21134;49.646;8.560;2023-02-02T08:37:05;101261.91;;;7.56;89.59
34931;BME280;21134;49.646;8.560;2023-02-02T08:39:31;101248.19;;;7.51;90.13
34931;BME280;21134;49.646;8.560;2023-02-02T08:41:58;101253.91;;;7.42;89.88
34931;BME280;21134;49.646;8.560;2023-02-02T08:44:25;101261.00;;;7.56;90.23
34931;BME280;21134;49.646;8.560;2023-02-02T08:46:52;101269.72;;;7.65;88.45
34931;BME280;21134;49.646;8.560;2023-02-02T08:49:18;101270.56;;;7.64;88.74
34931;BME280;21134;49.646;8.560;2023-02-02T08:51:45;101271.50;;;7.68;88.22
34931;BME280;21134;49.646;8.560;2023-02-02T08:54:11;101265.41;;;7.61;89.48
34931;BME280;21134;49.646;8.560;2023-02-02T08:56:38;101271.63;;;7.73;88.76
34931;BME280;21134;49.646;8.560;2023-02-02T08:59:04;101268.06;;;7.66;89.61
34931;BME280;21134;49.646;8.560;2023-02-02T09:01:33;101266.31;;;7.63;90.50
34931;BME280;21134;49.646;8.560;2023-02-02T09:04:01;101268.38;;;7.80;88.99
34931;BME280;21134;49.646;8.560;2023-02-02T09:06:31;101281.94;;;7.79;88.94
34931;BME280;21134;49.646;8.560;2023-02-02T09:08:57;101270.22;;;7.85;87.50
34931;BME280;21134;49.646;8.560;2023-02-02T09:11:25;101280.28;;;7.81;88.09
34931;BME280;21134;49.646;8.560;2023-02-02T09:13:53;101281.88;;;7.76;88.97
34931;BME280;21134;49.646;8.560;2023-02-02T09:16:20;101282.94;;;7.85;87.26
34931;BME280;21134;49.646;8.560;2023-02-02T09:18:48;101280.50;;;7.90;87.50
34931;BME280;21134;49.646;8.560;2023-02-02T09:21:16;101278.84;;;7.92;86.84
34931;BME280;21134;49.646;8.560;2023-02-02T09:23:44;101265.03;;;7.82;87.68
34931;BME280;21134;49.646;8.560;2023-02-02T09:26:12;101272.72;;;7.84;87.63
34931;BME280;21134;49.646;8.560;2023-02-02T09:28:40;101281.47;;;7.95;87.01
34931;BME280;21134;49.646;8.560;2023-02-02T09:31:08;101278.94;;;7.97;87.63
34931;BME280;21134;49.646;8.560;2023-02-02T09:33:35;101271.94;;;7.86;88.04
34931;BME280;21134;49.646;8.560;2023-02-02T09:36:09;101275.25;;;7.84;88.69
34931;BME280;21134;49.646;8.560;2023-02-02T09:38:36;101277.22;;;7.96;87.78
34931;BME280;21134;49.646;8.560;2023-02-02T09:41:25;101271.47;;;8.04;86.39
34931;BME280;21134;49.646;8.560;2023-02-02T09:44:03;101274.19;;;8.12;86.19
34931;BME280;21134;49.646;8.560;2023-02-02T09:46:38;101279.50;;;8.23;85.16
34931;BME280;21134;49.646;8.560;2023-02-02T09:49:11;101288.03;;;8.23;85.51
34931;BME280;21134;49.646;8.560;2023-02-02T09:51:45;101283.03;;;8.28;85.26
34931;BME280;21134;49.646;8.560;2023-02-02T09:54:17;101291.31;;;8.18;85.88
34931;BME280;21134;49.646;8.560;2023-02-02T09:56:47;101302.56;;;8.27;84.40
34931;BME280;21134;49.646;8.560;2023-02-02T09:59:18;101286.53;;;8.33;84.93
34931;BME280;21134;49.646;8.560;2023-02-02T10:01:47;101299.38;;;8.37;84.26
34931;BME280;21134;49.646;8.560;2023-02-02T10:04:18;101298.47;;;8.35;83.80
34931;BME280;21134;49.646;8.560;2023-02-02T10:06:49;101300.44;;;8.46;83.93
34931;BME280;21134;49.646;8.560;2023-02-02T10:09:30;101311.97;;;8.30;84.43
34931;BME280;21134;49.646;8.560;2023-02-02T10:12:03;101314.47;;;8.28;84.24
34931;BME280;21134;49.646;8.560;2023-02-02T10:14:35;101320.34;;;8.26;84.05
34931;BME280;21134;49.646;8.560;2023-02-02T10:17:22;101323.16;;;8.36;83.25
34931;BME280;21134;49.646;8.560;2023-02-02T10:19:54;101331.72;;;8.38;83.68
34931;BME280;21134;49.646;8.560;2023-02-02T10:22:26;101330.91;;;8.40;82.92
34931;BME280;21134;49.646;8.560;2023-02-02T10:24:56;101331.56;;;8.32;84.23
34931;BME280;21134;49.646;8.560;2023-02-02T10:27:30;101325.81;;;8.40;83.27
34931;BME280;21134;49.646;8.560;2023-02-02T10:30:02;101330.69;;;8.32;83.19
34931;BME280;21134;49.646;8.560;2023-02-02T10:32:34;101333.59;;;8.47;82.07
34931;BME280;21134;49.646;8.560;2023-02-02T10:35:18;101330.75;;;8.35;83.86
34931;BME280;21134;49.646;8.560;2023-02-02T10:37:51;101330.63;;;8.29;83.54
34931;BME280;21134;49.646;8.560;2023-02-02T10:40:32;101326.94;;;8.16;85.13
34931;BME280;21134;49.646;8.560;2023-02-02T10:43:17;101325.44;;;8.24;84.54
34931;BME280;21134;49.646;8.560;2023-02-02T10:46:13;101333.09;;;8.26;84.88
34931;BME280;21134;49.646;8.560;2023-02-02T10:48:42;101334.22;;;8.37;84.01
34931;BME280;21134;49.646;8.560;2023-02-02T10:51:16;101328.00;;;8.26;84.86
34931;BME280;21134;49.646;8.560;2023-02-02T10:53:49;101327.53;;;8.41;83.30
34931;BME280;21134;49.646;8.560;2023-02-02T10:56:17;101331.59;;;8.34;84.49
34931;BME280;21134;49.646;8.560;2023-02-02T10:58:49;101335.00;;;8.34;84.02
34931;BME280;21134;49.646;8.560;2023-02-02T11:01:18;101329.06;;;8.34;83.41
34931;BME280;21134;49.646;8.560;2023-02-02T11:03:47;101334.84;;;8.27;83.53
34931;BME280;21134;49.646;8.560;2023-02-02T11:06:34;101329.97;;;8.36;83.10
34931;BME280;21134;49.646;8.560;2023-02-02T11:09:18;101330.56;;;8.26;85.08
34931;BME280;21134;49.646;8.560;2023-02-02T11:11:45;101333.47;;;8.40;83.95
34931;BME280;21134;49.646;8.560;2023-02-02T11:14:17;101334.09;;;8.32;83.47
34931;BME280;21134;49.646;8.560;2023-02-02T11:17:02;101328.22;;;8.35;82.63
34931;BME280;21134;49.646;8.560;2023-02-02T11:19:30;101325.53;;;8.29;84.14
34931;BME280;21134;49.646;8.560;2023-02-02T11:21:58;101332.44;;;8.33;83.71
34931;BME280;21134;49.646;8.560;2023-02-02T11:24:28;101328.38;;;8.41;84.05
34931;BME280;21134;49.646;8.560;2023-02-02T11:26:58;101332.81;;;8.50;82.16
34931;BME280;21134;49.646;8.560;2023-02-02T11:29:28;101326.63;;;8.38;83.60
34931;BME280;21134;49.646;8.560;2023-02-02T11:31:56;101325.81;;;8.41;83.71
34931;BME280;21134;49.646;8.560;2023-02-02T11:34:24;101323.47;;;8.50;82.92
34931;BME280;21134;49.646;8.560;2023-02-02T11:37:12;101324.47;;;8.57;82.17
34931;BME280;21134;49.646;8.560;2023-02-02T11:39:40;101331.31;;;8.59;82.02
34931;BME280;21134;49.646;8.560;2023-02-02T11:42:12;101330.59;;;8.67;82.08
34931;BME280;21134;49.646;8.560;2023-02-02T11:44:43;101332.19;;;8.60;81.60
34931;BME280;21134;49.646;8.560;2023-02-02T11:47:18;101331.19;;;8.53;81.82
34931;BME280;21134;49.646;8.560;2023-02-02T11:49:45;101326.31;;;8.64;82.22
34931;BME280;21134;49.646;8.560;2023-02-02T11:52:17;101322.25;;;8.74;81.59
34931;BME280;21134;49.646;8.560;2023-02-02T11:54:48;101319.69;;;8.72;81.05
34931;BME280;21134;49.646;8.560;2023-02-02T11:57:17;101322.28;;;8.75;81.08
34931;BME280;21134;49.646;8.560;2023-02-02T11:59:44;101322.31;;;8.77;81.33
34931;BME280;21134;49.646;8.560;2023-02-02T12:02:27;101319.94;;;8.86;81.33
34931;BME280;21134;49.646;8.560;2023-02-02T12:05:11;101313.84;;;8.79;80.92
34931;BME280;21134;49.646;8.560;2023-02-02T12:07:38;101324.25;;;8.90;80.84
34931;BME280;21134;49.646;8.560;2023-02-02T12:10:13;101320.72;;;8.83;80.78
34931;BME280;21134;49.646;8.560;2023-02-02T12:12:51;101313.91;;;8.81;80.75
34931;BME280;21134;49.646;8.560;2023-02-02T12:15:27;101321.31;;;9.13;77.42
34931;BME280;21134;49.646;8.560;2023-02-02T12:18:05;101322.34;;;9.22;77.24
34931;BME280;21134;49.646;8.560;2023-02-02T12:20:39;101314.63;;;9.19;77.28
34931;BME280;21134;49.646;8.560;2023-02-02T12:23:24;101303.78;;;9.32;76.47
34931;BME280;21134;49.646;8.560;2023-02-02T12:26:07;101301.31;;;9.39;76.23
34931;BME280;21134;49.646;8.560;2023-02-02T12:29:09;101298.78;;;9.39;76.29
34931;BME280;21134;49.646;8.560;2023-02-02T12:31:48;101291.38;;;9.54;75.71
34931;BME280;21134;49.646;8.560;2023-02-02T12:34:23;101304.41;;;9.71;73.91
34931;BME280;21134;49.646;8.560;2023-02-02T12:37:01;101302.75;;;9.74;74.87
34931;BME280;21134;49.646;8.560;2023-02-02T12:39:33;101298.53;;;9.76;74.32
34931;BME280;21134;49.646;8.560;2023-02-02T12:42:18;101307.88;;;9.76;74.96
34931;BME280;21134;49.646;8.560;2023-02-02T12:45:10;101292.50;;;9.73;74.95
34931;BME280;21134;49.646;8.560;2023-02-02T12:47:46;101289.34;;;9.89;73.17
34931;BME280;21134;49.646;8.560;2023-02-02T12:50:25;101285.22;;;9.99;73.49
34931;BME280;21134;49.646;8.560;2023-02-02T12:53:08;101282.78;;;10.08;72.24
34931;BME280;21134;49.646;8.560;2023-02-02T12:55:43;101292.97;;;10.04;73.68
34931;BME280;21134;49.646;8.560;2023-02-02T12:58:22;101291.28;;;10.07;72.92
34931;BME280;21134;49.646;8.560;2023-02-02T13:01:09;101290.56;;;10.17;72.41
34931;BME280;21134;49.646;8.560;2023-02-02T13:04:03;101305.78;;;10.05;72.54
34931;BME280;21134;49.646;8.560;2023-02-02T13:06:53;101306.53;;;9.99;72.92
34931;BME280;21134;49.646;8.560;2023-02-02T13:09:30;101298.06;;;10.02;73.00
34931;BME280;21134;49.646;8.560;2023-02-02T13:12:03;101300.66;;;10.07;73.87
34931;BME280;21134;49.646;8.560;2023-02-02T13:14:35;101292.19;;;10.09;73.30
34931;BME280;21134;49.646;8.560;2023-02-02T13:17:08;101282.09;;;10.18;71.65
34931;BME280;21134;49.646;8.560;2023-02-02T13:19:39;101302.47;;;10.14;72.28